Time;durP1;ratioP1;P1;durP2;ratioP2;P2;SDS_P1;SDS_P2;PMS_P1;PMS_P2;Temp;Humidity;BMP_temperature;BMP_pressure;BME280_temperature;BME280_humidity;BME280_pressure;Samples;Min_cycle;Max_cycle;Signal;HPM_P1;HPM_P2
2021/03/30 00:03:06;;;;;;;26.4;19.4;;;;;;;8.65;100;100049;;;;
2021/03/30 00:13:04;;;;;;;20.7;18.2;;;;;;;8.73;100;100042.3;;;;
2021/03/30 00:23:03;;;;;;;23.8;19.2;;;;;;;8.85;100;100035.7;;;;
2021/03/30 00:33:01;;;;;;;27.7;17.5;;;;;;;8.67;100;100033.4;;;;
2021/03/30 00:43:00;;;;;;;23.2;17.8;;;;;;;8.67;100;100033.4;;;;
2021/03/30 00:53:00;;;;;;;20.4;14.5;;;;;;;8.63;100;100013.5;;;;
2021/03/30 01:02:57;;;;;;;15.4;12.3;;;;;;;8.55;100;100014;;;;
2021/03/30 01:12:56;;;;;;;16.9;12;;;;;;;8.57;100;100006.5;;;;
2021/03/30 01:23:23;;;;;;;12.8;10.4;;;;;;;8.7;100;100006;;;;
2021/03/30 01:32:53;;;;;;;13.3;9.5;;;;;;;8.86;100;100012.3;;;;
2021/03/30 01:42:51;;;;;;;13.1;9.3;;;;;;;8.91;100;100031.2;;;;
2021/03/30 01:52:49;;;;;;;15.7;11.6;;;;;;;8.79;100;100011.7;;;;
2021/03/30 02:02:48;;;;;;;13.1;10.4;;;;;;;8.77;100;100000.4;;;;
2021/03/30 02:12:46;;;;;;;15.9;10.5;;;;;;;8.74;100;99995.58;;;;
2021/03/30 02:22:49;;;;;;;14.9;9.2;;;;;;;8.71;100;99994.2;;;;
2021/03/30 02:32:44;;;;;;;14.2;9.9;;;;;;;8.64;100;99990.15;;;;
2021/03/30 02:42:45;;;;;;;14.9;10.8;;;;;;;8.77;100;99978.92;;;;
2021/03/30 02:52:42;;;;;;;13.1;8.2;;;;;;;8.84;100;99987.56;;;;
2021/03/30 03:02:43;;;;;;;15.7;10.4;;;;;;;8.82;100;99978.93;;;;
2021/03/30 03:12:37;;;;;;;14.6;8;;;;;;;8.86;100;99977.34;;;;
2021/03/30 03:22:36;;;;;;;11.9;8.7;;;;;;;8.9;100;99976.56;;;;
2021/03/30 03:32:34;;;;;;;7.4;5.9;;;;;;;8.92;100;99962.88;;;;
2021/03/30 03:42:33;;;;;;;10.5;7.3;;;;;;;8.95;100;99947.02;;;;
2021/03/30 03:52:32;;;;;;;10.4;7.7;;;;;;;9.04;100;99961.56;;;;
2021/03/30 04:02:30;;;;;;;13.8;8.2;;;;;;;9.11;100;99961.31;;;;
2021/03/30 04:12:31;;;;;;;11;8.2;;;;;;;9.18;100;99969.95;;;;
2021/03/30 04:22:27;;;;;;;8.8;6.6;;;;;;;9.37;100;99965.69;;;;
2021/03/30 04:32:26;;;;;;;10.8;7.8;;;;;;;9.53;100;99969.23;;;;
2021/03/30 04:42:24;;;;;;;14.9;11.1;;;;;;;9.55;100;99980.52;;;;
2021/03/30 04:52:23;;;;;;;18.2;12.7;;;;;;;9.5;100;99973.27;;;;
2021/03/30 05:02:22;;;;;;;13.7;8.9;;;;;;;9.54;100;99985.09;;;;
2021/03/30 05:12:20;;;;;;;12.9;10.2;;;;;;;9.44;100;99989.67;;;;
2021/03/30 05:22:19;;;;;;;11.9;8.4;;;;;;;9.49;100;99990.48;;;;
2021/03/30 05:32:17;;;;;;;13.1;8.8;;;;;;;9.45;100;99983.2;;;;
2021/03/30 05:42:16;;;;;;;12.9;8.2;;;;;;;9.58;100;99986.19;;;;
2021/03/30 05:52:19;;;;;;;14.9;8.6;;;;;;;9.75;100;99999.42;;;;
2021/03/30 06:02:13;;;;;;;11.9;8.2;;;;;;;10.11;100;100003.7;;;;
2021/03/30 06:12:12;;;;;;;12.5;9.1;;;;;;;10.29;100;100026.7;;;;
2021/03/30 06:22:11;;;;;;;18.6;12.6;;;;;;;10.28;100;100022.4;;;;
2021/03/30 06:32:09;;;;;;;17.3;13;;;;;;;10.37;100;100030.7;;;;
2021/03/30 06:42:11;;;;;;;14.7;11.6;;;;;;;10.47;100;100039.6;;;;
2021/03/30 06:52:07;;;;;;;18.9;12.5;;;;;;;10.4;100;100046.3;;;;
2021/03/30 07:02:05;;;;;;;18.3;13.3;;;;;;;10.51;100;100053.3;;;;
2021/03/30 07:12:04;;;;;;;21.1;17.3;;;;;;;10.59;100;100050.9;;;;
2021/03/30 07:22:03;;;;;;;19.5;13.7;;;;;;;10.69;100;100060.9;;;;
2021/03/30 07:32:02;;;;;;;21.3;13.6;;;;;;;10.73;100;100064.6;;;;
2021/03/30 07:42:00;;;;;;;18.6;15.3;;;;;;;10.67;100;100065.7;;;;
2021/03/30 07:51:59;;;;;;;26.6;18.6;;;;;;;10.69;100;100070.9;;;;
2021/03/30 08:01:58;;;;;;;21.3;15.3;;;;;;;11.03;100;100072.7;;;;
2021/03/30 08:11:57;;;;;;;20.9;17.7;;;;;;;11.63;100;100087.8;;;;
2021/03/30 08:21:56;;;;;;;20.8;16.3;;;;;;;12.05;100;100079.2;;;;
2021/03/30 08:31:55;;;;;;;18.6;15.2;;;;;;;12.39;100;100076.5;;;;
2021/03/30 08:41:57;;;;;;;24.1;17;;;;;;;12.92;100;100077.4;;;;
2021/03/30 08:51:53;;;;;;;19.9;12.8;;;;;;;13.52;100;100073.3;;;;
2021/03/30 09:01:52;;;;;;;17.5;14.2;;;;;;;13.92;100;100063.8;;;;
2021/03/30 09:11:52;;;;;;;18;15.5;;;;;;;14.44;100;100075.5;;;;
2021/03/30 09:21:53;;;;;;;19.1;16.3;;;;;;;14.37;100;100069.6;;;;
2021/03/30 09:31:50;;;;;;;20.5;18.2;;;;;;;14.39;100;100083.7;;;;
2021/03/30 09:41:50;;;;;;;21.6;17.8;;;;;;;14.28;100;100085.7;;;;
2021/03/30 09:51:49;;;;;;;26.9;22.2;;;;;;;13.94;100;100083.3;;;;
2021/03/30 10:01:48;;;;;;;26.9;22;;;;;;;13.61;100;100079.6;;;;
2021/03/30 10:11:50;;;;;;;27.9;22.7;;;;;;;13.9;100;100071.4;;;;
2021/03/30 10:21:51;;;;;;;37.4;28.8;;;;;;;14.18;100;100063.4;;;;
2021/03/30 10:31:49;;;;;;;34.1;27.2;;;;;;;14.57;100;100063.9;;;;
2021/03/30 10:41:45;;;;;;;32.9;24.2;;;;;;;14.74;100;100069.5;;;;
2021/03/30 10:51:46;;;;;;;28.9;25.8;;;;;;;14.44;100;100067.3;;;;
2021/03/30 11:01:44;;;;;;;33.1;28.4;;;;;;;14.36;100;100059.9;;;;
2021/03/30 11:11:43;;;;;;;36.1;28.1;;;;;;;14.28;100;100063.2;;;;
2021/03/30 11:21:43;;;;;;;32.6;29.2;;;;;;;14.11;100;100063.8;;;;
2021/03/30 11:41:42;;;;;;;30.8;27.5;;;;;;;14.56;100;100043.3;;;;
2021/03/30 11:51:42;;;;;;;32.6;25.4;;;;;;;15.03;97.65918;100042.9;;;;
2021/03/30 12:01:42;;;;;;;24.9;20.5;;;;;;;15.56;97.75098;100023.4;;;;
2021/03/30 12:11:44;;;;;;;23.9;19.7;;;;;;;16.09;92.75586;100016.2;;;;
2021/03/30 12:21:42;;;;;;;22;19.5;;;;;;;16.01;89.41699;100000.6;;;;
2021/03/30 12:31:39;;;;;;;28.2;20.1;;;;;;;16.17;88.05762;99994.8;;;;
2021/03/30 12:41:38;;;;;;;29.6;21.6;;;;;;;16.14;87.61035;99993.47;;;;
2021/03/30 12:51:38;;;;;;;22.7;18.4;;;;;;;16.46;85.5166;99978.79;;;;
2021/03/30 13:01:38;;;;;;;20.8;17.6;;;;;;;16.9;83.25977;99967.02;;;;
2021/03/30 13:11:37;;;;;;;25.9;20;;;;;;;17.12;81.63184;99958.73;;;;
2021/03/30 13:21:37;;;;;;;28.7;21.2;;;;;;;17.42;80.81836;99960.55;;;;
2021/03/30 13:31:37;;;;;;;24.5;18.6;;;;;;;17.63;81.01563;99955.33;;;;
2021/03/30 13:41:38;;;;;;;18.3;15.8;;;;;;;17.72;79.19824;99947.14;;;;
2021/03/30 13:51:36;;;;;;;29.9;19.7;;;;;;;17.59;79.3125;99940.73;;;;
2021/03/30 14:01:36;;;;;;;17.5;15.7;;;;;;;17.64;79.67676;99932.38;;;;
2021/03/30 14:11:41;;;;;;;22.6;18;;;;;;;17.87;79.12207;99925.64;;;;
2021/03/30 14:21:40;;;;;;;20.3;17.8;;;;;;;17.96;78.58789;99915.52;;;;
2021/03/30 14:31:35;;;;;;;22.7;15.8;;;;;;;17.9;80.33105;99910.55;;;;
2021/03/30 14:41:37;;;;;;;22.7;15.7;;;;;;;17.81;80.75;99902.36;;;;
2021/03/30 15:11:34;;;;;;;22.5;18;;;;;;;17.77;75.80176;99874.13;;;;
2021/03/30 15:21:34;;;;;;;19;16.5;;;;;;;17.66;76.22949;99869.36;;;;
2021/03/30 15:31:34;;;;;;;29.5;17.2;;;;;;;17.97;74.1377;99857.11;;;;
2021/03/30 15:41:34;;;;;;;21;13.1;;;;;;;17.18;76.05469;99850.44;;;;
2021/03/30 15:51:33;;;;;;;18.1;14.6;;;;;;;16.97;77.65723;99844.81;;;;
2021/03/30 16:01:33;;;;;;;18.4;14.4;;;;;;;16.98;78.69043;99847.2;;;;
2021/03/30 16:11:33;;;;;;;24.1;15.7;;;;;;;16.54;79.62891;99833.79;;;;
2021/03/30 16:21:32;;;;;;;18.8;15.9;;;;;;;17.07;78.33887;99841.77;;;;
2021/03/30 16:31:31;;;;;;;20.8;13.9;;;;;;;16.91;78.40137;99838.7;;;;
2021/03/30 16:41:31;;;;;;;28.6;17.8;;;;;;;16.1;80.10938;99832.82;;;;
2021/03/30 16:51:32;;;;;;;25.9;18.5;;;;;;;15.45;81.56445;99842.64;;;;
2021/03/30 17:01:30;;;;;;;22.5;17.4;;;;;;;14.95;83.61133;99837.3;;;;
2021/03/30 17:11:29;;;;;;;25.6;20.7;;;;;;;14.45;84.9707;99841.88;;;;
2021/03/30 17:21:29;;;;;;;33.1;23.5;;;;;;;13.92;86.86523;99841.5;;;;
2021/03/30 17:31:28;;;;;;;35;23.9;;;;;;;13.48;89.00879;99842;;;;
2021/03/30 17:41:27;;;;;;;31.9;28.4;;;;;;;13.05;90.46973;99843.19;;;;
2021/03/30 17:51:26;;;;;;;33.2;25.3;;;;;;;12.63;92.40527;99850.22;;;;
2021/03/30 18:01:25;;;;;;;34.2;27.6;;;;;;;12.5;94.61914;99850.13;;;;
2021/03/30 18:11:24;;;;;;;35;22.5;;;;;;;12.37;95.00977;99856.23;;;;
2021/03/30 18:21:24;;;;;;;27.4;22.2;;;;;;;12.38;95.90137;99865.96;;;;
2021/03/30 18:31:22;;;;;;;32.4;23.9;;;;;;;12.49;96.44531;99857.45;;;;
2021/03/30 18:41:22;;;;;;;28.9;25.8;;;;;;;12.36;95.9541;99865.42;;;;
2021/03/30 18:51:21;;;;;;;30.8;23.6;;;;;;;12.1;96.8877;99862.2;;;;
2021/03/30 19:01:20;;;;;;;32;28.5;;;;;;;11.7;97.67871;99863.36;;;;
2021/03/30 19:11:19;;;;;;;40.7;30.9;;;;;;;11.4;98.95703;99860.91;;;;
2021/03/30 19:21:18;;;;;;;34;30.4;;;;;;;11.06;100;99867.08;;;;
2021/03/30 19:31:22;;;;;;;42.5;36.6;;;;;;;10.94;100;99857.7;;;;
2021/03/30 19:41:15;;;;;;;41.6;35.5;;;;;;;10.76;100;99858.36;;;;
2021/03/30 19:51:19;;;;;;;38.5;34.4;;;;;;;10.55;100;99844.95;;;;
2021/03/30 20:01:13;;;;;;;38.8;32.2;;;;;;;10.41;100;99848.53;;;;
2021/03/30 20:11:12;;;;;;;39.2;34.9;;;;;;;10.43;100;99840.97;;;;
2021/03/30 20:21:11;;;;;;;47.1;34.1;;;;;;;10.57;100;99847.38;;;;
2021/03/30 20:31:09;;;;;;;41.3;32.7;;;;;;;10.44;100;99839.89;;;;
2021/03/30 20:41:08;;;;;;;39.2;33.2;;;;;;;10.24;100;99839.97;;;;
2021/03/30 20:51:07;;;;;;;43.9;34.4;;;;;;;9.98;100;99840;;;;
2021/03/30 21:01:06;;;;;;;32.7;28;;;;;;;9.71;100;99826.05;;;;
2021/03/30 21:11:04;;;;;;;45.9;36.3;;;;;;;9.49;100;99829.02;;;;
2021/03/30 21:21:03;;;;;;;43.6;34.7;;;;;;;9.32;100;99823.1;;;;
2021/03/30 21:31:02;;;;;;;41.9;37.3;;;;;;;9.22;100;99811.53;;;;
2021/03/30 21:41:00;;;;;;;45.6;37.4;;;;;;;9.09;100;99813.66;;;;
2021/03/30 21:50:59;;;;;;;41.8;34.6;;;;;;;8.94;100;99824.41;;;;
2021/03/30 22:00:57;;;;;;;45.2;35.6;;;;;;;8.81;100;99816.86;;;;
2021/03/30 22:10:58;;;;;;;42.8;34.2;;;;;;;8.68;100;99816.56;;;;
2021/03/30 22:20:55;;;;;;;40.3;30.6;;;;;;;8.64;100;99818.16;;;;
2021/03/30 22:30:53;;;;;;;37.5;29.8;;;;;;;8.55;100;99828.59;;;;
2021/03/30 22:40:52;;;;;;;38.5;27.5;;;;;;;8.33;100;99809.97;;;;
2021/03/30 22:50:50;;;;;;;31.5;28.2;;;;;;;8.27;100;99828.98;;;;
2021/03/30 23:00:49;;;;;;;39.4;29.5;;;;;;;8.1;100;99827.3;;;;
2021/03/30 23:10:47;;;;;;;34.8;28.4;;;;;;;8.11;100;99820.06;;;;
2021/03/30 23:20:46;;;;;;;32.8;29.5;;;;;;;8.23;100;99822.52;;;;
2021/03/30 23:30:44;;;;;;;34.9;30.5;;;;;;;8.56;100;99816.78;;;;
2021/03/30 23:40:43;;;;;;;37.2;30.8;;;;;;;8.74;100;99804.74;;;;
2021/03/30 23:50:46;;;;;;;31.1;27.9;;;;;;;8.61;100;99802.56;;;;
